ANA2037 RJFF-BIKF
Flight info
| Callsign | ANA2037 |
|---|---|
| Flight time | N/A |
| Altitude | 29000 |
| Route | SABAR Y81 MOE A590 PUTER/N0504F300 A590 PUGAL/N0491F310 A590 POWAL DCT OPAKE DCT MARCC/N0495F330 DCT JUJXI DCT LUR DCT 72N164W 76N160W 78N157W DCT PEASY DCT 85N120W 85N100W/N0491F350 85N080W 84N060W/M084F350 82N044W/M084F340 79N033W 76N027W DCT MV/M084F360 DCT CP DCT GJ DCT DEVUD DEVUD3K |
| Aircraft | B77W/H-SDE1E2E3FGHIJ2J3J4J5M1RWXY/LB1D1 |
Departure
| Time | N/A |
|---|---|
| Airport | Fukuoka Airport (RJFF) |
Arrival
| Time | 2026-04-30 12:17 |
|---|---|
| Airport | Keflavik International Airport (BIKF) |
| Time | Latitude | Longitude | Altitude | Speed | Heading |
|---|---|---|---|---|---|
| 2026-04-30 08:13 | 82.79292 | -142.18603 | 34756 ft | 505 kts | 34° |
| 2026-04-30 08:13 | 82.82173 | -142.02606 | 34982 ft | 503 kts | 34° |
| 2026-04-30 08:14 | 82.84070 | -141.91989 | 35077 ft | 503 kts | 34° |
| 2026-04-30 08:14 | 82.90701 | -141.54318 | 35154 ft | 498 kts | 34° |
| 2026-04-30 08:15 | 82.96318 | -141.21758 | 35162 ft | 495 kts | 35° |
| 2026-04-30 08:15 | 83.00998 | -140.94056 | 35164 ft | 494 kts | 36° |
| 2026-04-30 08:16 | 83.06422 | -140.59700 | 35165 ft | 495 kts | 37° |
| 2026-04-30 08:16 | 83.11812 | -140.24108 | 35160 ft | 495 kts | 38° |
| 2026-04-30 08:17 | 83.17197 | -139.87985 | 35160 ft | 496 kts | 38° |
| 2026-04-30 08:17 | 83.22573 | -139.51380 | 35156 ft | 497 kts | 38° |
| 2026-04-30 08:18 | 83.27938 | -139.14149 | 35154 ft | 497 kts | 39° |
| 2026-04-30 08:18 | 83.33278 | -138.76306 | 35156 ft | 498 kts | 39° |
| 2026-04-30 08:19 | 83.38587 | -138.37853 | 35152 ft | 498 kts | 39° |
| 2026-04-30 08:19 | 83.43863 | -137.98803 | 35150 ft | 497 kts | 40° |
| 2026-04-30 08:20 | 83.49112 | -137.59091 | 35151 ft | 497 kts | 40° |
| 2026-04-30 08:20 | 83.54316 | -137.18839 | 35149 ft | 497 kts | 41° |
| 2026-04-30 08:21 | 83.59490 | -136.77926 | 35152 ft | 496 kts | 41° |
| 2026-04-30 08:21 | 83.64591 | -136.36684 | 35144 ft | 496 kts | 41° |
| 2026-04-30 08:22 | 83.69694 | -135.94479 | 35145 ft | 496 kts | 42° |
| 2026-04-30 08:22 | 83.74759 | -135.51622 | 35146 ft | 496 kts | 43° |
| 2026-04-30 08:23 | 83.79791 | -135.08055 | 35147 ft | 496 kts | 43° |
| 2026-04-30 08:23 | 83.84790 | -134.63745 | 35143 ft | 496 kts | 44° |
| 2026-04-30 08:24 | 83.89747 | -134.18764 | 35143 ft | 496 kts | 44° |
| 2026-04-30 08:24 | 83.94676 | -133.72952 | 35146 ft | 496 kts | 44° |
| 2026-04-30 08:25 | 83.99553 | -133.26528 | 35140 ft | 497 kts | 45° |
| 2026-04-30 08:25 | 84.04398 | -132.79263 | 35142 ft | 497 kts | 45° |
| 2026-04-30 08:26 | 84.09198 | -132.31277 | 35139 ft | 496 kts | 46° |
| 2026-04-30 08:26 | 84.13930 | -131.82784 | 35140 ft | 496 kts | 46° |
| 2026-04-30 08:27 | 84.18640 | -131.33284 | 35139 ft | 496 kts | 47° |
| 2026-04-30 08:27 | 84.23315 | -130.82895 | 35139 ft | 496 kts | 47° |
| 2026-04-30 08:28 | 84.27931 | -130.31841 | 35134 ft | 496 kts | 48° |
| 2026-04-30 08:28 | 84.32514 | -129.79817 | 35136 ft | 495 kts | 49° |
| 2026-04-30 08:29 | 84.37037 | -129.27099 | 35136 ft | 495 kts | 49° |
| 2026-04-30 08:29 | 84.41509 | -128.73573 | 35135 ft | 495 kts | 50° |
| 2026-04-30 08:30 | 84.45937 | -128.19126 | 35136 ft | 495 kts | 50° |
| 2026-04-30 08:30 | 84.50278 | -127.64274 | 35135 ft | 494 kts | 51° |
| 2026-04-30 08:31 | 84.54592 | -127.08248 | 35133 ft | 494 kts | 52° |
| 2026-04-30 08:31 | 84.58857 | -126.51288 | 35133 ft | 494 kts | 52° |
| 2026-04-30 08:32 | 84.63064 | -125.93483 | 35133 ft | 494 kts | 53° |
| 2026-04-30 08:32 | 84.67203 | -125.34966 | 35133 ft | 493 kts | 53° |
| 2026-04-30 08:33 | 84.71291 | -124.75450 | 35132 ft | 493 kts | 54° |
| 2026-04-30 08:33 | 84.75318 | -124.15087 | 35134 ft | 493 kts | 54° |
| 2026-04-30 08:34 | 84.79285 | -123.53808 | 35133 ft | 492 kts | 55° |
| 2026-04-30 08:34 | 84.83194 | -122.91577 | 35133 ft | 492 kts | 56° |
| 2026-04-30 08:35 | 84.87034 | -122.28528 | 35133 ft | 492 kts | 57° |
| 2026-04-30 08:35 | 84.90785 | -121.65013 | 35136 ft | 491 kts | 57° |
| 2026-04-30 08:36 | 84.94520 | -120.99929 | 35132 ft | 491 kts | 58° |
| 2026-04-30 08:36 | 84.98063 | -120.34073 | 35130 ft | 490 kts | 64° |
| 2026-04-30 08:37 | 85.00475 | -119.61291 | 35142 ft | 489 kts | 76° |
| 2026-04-30 08:37 | 85.01675 | -118.84585 | 35137 ft | 488 kts | 82° |
| 2026-04-30 08:38 | 85.02584 | -118.06918 | 35131 ft | 488 kts | 83° |
| 2026-04-30 08:38 | 85.03436 | -117.29190 | 35137 ft | 488 kts | 83° |
| 2026-04-30 08:39 | 85.04244 | -116.51108 | 35137 ft | 488 kts | 84° |
| 2026-04-30 08:39 | 85.04973 | -115.72991 | 35134 ft | 488 kts | 84° |
| 2026-04-30 08:40 | 85.05611 | -114.94594 | 35141 ft | 488 kts | 85° |
| 2026-04-30 08:40 | 85.06153 | -114.16236 | 35134 ft | 488 kts | 86° |
| 2026-04-30 08:41 | 85.06602 | -113.37590 | 35138 ft | 488 kts | 87° |
| 2026-04-30 08:41 | 85.06957 | -112.59386 | 35137 ft | 487 kts | 88° |
| 2026-04-30 08:42 | 85.07221 | -111.80691 | 35139 ft | 487 kts | 88° |
| 2026-04-30 08:42 | 85.07392 | -111.01975 | 35135 ft | 487 kts | 89° |
| 2026-04-30 08:43 | 85.07471 | -110.23403 | 35151 ft | 486 kts | 90° |
| 2026-04-30 08:43 | 85.07457 | -109.44691 | 35140 ft | 486 kts | 91° |
| 2026-04-30 08:44 | 85.07351 | -108.65835 | 35140 ft | 485 kts | 91° |
| 2026-04-30 08:44 | 85.07153 | -107.87358 | 35145 ft | 485 kts | 92° |
| 2026-04-30 08:45 | 85.06862 | -107.08718 | 35143 ft | 485 kts | 93° |
| 2026-04-30 08:45 | 85.06484 | -106.31030 | 35143 ft | 485 kts | 94° |
| 2026-04-30 08:46 | 85.06010 | -105.52722 | 35145 ft | 485 kts | 95° |
| 2026-04-30 08:46 | 85.05447 | -104.74816 | 35144 ft | 485 kts | 95° |
| 2026-04-30 08:47 | 85.04819 | -103.99898 | 35147 ft | 485 kts | 96° |
| 2026-04-30 08:47 | 85.04406 | -103.54703 | 35149 ft | 485 kts | 96° |
| 2026-04-30 08:48 | 85.03976 | -103.10874 | 35146 ft | 485 kts | 97° |
| 2026-04-30 08:48 | 85.03514 | -102.67114 | 35146 ft | 485 kts | 97° |
| 2026-04-30 08:49 | 85.03020 | -102.23460 | 35150 ft | 485 kts | 98° |
| 2026-04-30 08:49 | 85.02526 | -101.82453 | 35170 ft | 485 kts | 98° |
| 2026-04-30 08:50 | 85.02009 | -101.41523 | 35147 ft | 485 kts | 98° |
| 2026-04-30 08:50 | 85.01156 | -100.78031 | 35148 ft | 485 kts | 99° |
| 2026-04-30 08:51 | 85.00542 | -100.00188 | 35169 ft | 485 kts | 90° |
| 2026-04-30 08:51 | 85.00913 | -99.22902 | 35151 ft | 486 kts | 82° |
| 2026-04-30 08:52 | 85.01927 | -98.46338 | 35152 ft | 486 kts | 82° |
| 2026-04-30 08:52 | 85.02939 | -97.68364 | 35156 ft | 486 kts | 83° |
| 2026-04-30 08:53 | 85.03827 | -96.91039 | 35165 ft | 486 kts | 84° |
| 2026-04-30 08:53 | 85.04603 | -96.13329 | 35164 ft | 486 kts | 84° |
| 2026-04-30 08:54 | 85.05280 | -95.35476 | 35167 ft | 486 kts | 85° |
| 2026-04-30 08:54 | 85.05868 | -94.57244 | 35166 ft | 486 kts | 86° |
| 2026-04-30 08:55 | 85.06362 | -93.79210 | 35167 ft | 485 kts | 86° |
| 2026-04-30 08:55 | 85.06764 | -93.01398 | 35163 ft | 485 kts | 88° |
| 2026-04-30 08:56 | 85.07078 | -92.23060 | 35173 ft | 485 kts | 88° |
| 2026-04-30 08:56 | 85.07299 | -91.44670 | 35172 ft | 485 kts | 89° |
| 2026-04-30 08:57 | 85.07413 | -90.78985 | 35173 ft | 485 kts | 90° |
| 2026-04-30 08:57 | 85.07466 | -89.88040 | 35172 ft | 484 kts | 90° |
| 2026-04-30 08:58 | 85.07411 | -89.09239 | 35169 ft | 484 kts | 91° |
| 2026-04-30 08:58 | 85.07296 | -88.44198 | 35177 ft | 484 kts | 92° |
| 2026-04-30 08:59 | 85.07074 | -87.65868 | 35175 ft | 484 kts | 92° |
| 2026-04-30 08:59 | 85.06760 | -86.87550 | 35176 ft | 484 kts | 93° |
| 2026-04-30 09:00 | 85.06355 | -86.09540 | 35183 ft | 484 kts | 94° |
| 2026-04-30 09:00 | 85.05859 | -85.31564 | 35177 ft | 484 kts | 95° |
| 2026-04-30 09:01 | 85.05274 | -84.53924 | 35181 ft | 484 kts | 96° |
| 2026-04-30 09:01 | 85.04599 | -83.76485 | 35191 ft | 483 kts | 96° |
| 2026-04-30 09:02 | 85.03418 | -82.60744 | 35187 ft | 483 kts | 97° |
| 2026-04-30 09:02 | 85.02521 | -81.83971 | 35185 ft | 483 kts | 98° |
| 2026-04-30 09:03 | 85.01550 | -81.08317 | 35187 ft | 483 kts | 99° |
| 2026-04-30 09:03 | 85.00491 | -80.32085 | 35185 ft | 483 kts | 99° |
| 2026-04-30 09:04 | 84.98905 | -79.57758 | 35185 ft | 482 kts | 108° |
| 2026-04-30 09:04 | 84.96743 | -78.85083 | 35189 ft | 483 kts | 109° |
| 2026-04-30 09:05 | 84.94652 | -78.16652 | 35189 ft | 483 kts | 109° |
| 2026-04-30 09:05 | 84.92522 | -77.48777 | 35186 ft | 483 kts | 109° |
| 2026-04-30 09:06 | 84.90329 | -76.81427 | 35193 ft | 483 kts | 110° |
| 2026-04-30 09:06 | 84.88108 | -76.15810 | 35191 ft | 483 kts | 111° |
| 2026-04-30 09:07 | 84.86316 | -75.64650 | 35194 ft | 483 kts | 111° |
| 2026-04-30 09:07 | 84.84700 | -75.19578 | 35191 ft | 483 kts | 111° |
| 2026-04-30 09:08 | 84.83092 | -74.75943 | 35197 ft | 483 kts | 112° |
| 2026-04-30 09:08 | 84.81366 | -74.30315 | 35192 ft | 483 kts | 112° |
| 2026-04-30 09:09 | 84.78918 | -73.67873 | 35197 ft | 483 kts | 113° |
| 2026-04-30 09:09 | 84.76208 | -73.01288 | 35196 ft | 483 kts | 114° |
| 2026-04-30 09:10 | 84.73520 | -72.37291 | 35196 ft | 483 kts | 114° |
| 2026-04-30 09:10 | 84.70632 | -71.70836 | 35192 ft | 483 kts | 115° |
| 2026-04-30 09:11 | 84.67691 | -71.05475 | 35196 ft | 483 kts | 115° |
| 2026-04-30 09:11 | 84.64686 | -70.40894 | 35192 ft | 483 kts | 116° |
| 2026-04-30 09:12 | 84.61620 | -69.77168 | 35196 ft | 483 kts | 117° |
| 2026-04-30 09:12 | 84.58496 | -69.14307 | 35196 ft | 483 kts | 117° |
| 2026-04-30 09:13 | 84.55277 | -68.51592 | 35198 ft | 483 kts | 118° |
| 2026-04-30 09:13 | 84.52003 | -67.89807 | 35200 ft | 483 kts | 118° |
| 2026-04-30 09:14 | 84.48701 | -67.29349 | 35197 ft | 483 kts | 119° |
| 2026-04-30 09:14 | 84.45307 | -66.69079 | 35201 ft | 483 kts | 120° |
| 2026-04-30 09:15 | 84.41864 | -66.09736 | 35203 ft | 483 kts | 120° |
| 2026-04-30 09:15 | 84.38354 | -65.50979 | 35205 ft | 483 kts | 121° |
| 2026-04-30 09:16 | 84.34789 | -64.93011 | 35188 ft | 483 kts | 121° |
| 2026-04-30 09:16 | 84.31168 | -64.35775 | 35209 ft | 483 kts | 122° |
| 2026-04-30 09:17 | 84.27493 | -63.79299 | 35204 ft | 483 kts | 122° |
| 2026-04-30 09:17 | 84.23752 | -63.23376 | 35205 ft | 483 kts | 123° |
| 2026-04-30 09:18 | 84.19962 | -62.68248 | 35192 ft | 484 kts | 123° |
| 2026-04-30 09:18 | 84.16119 | -62.13820 | 35194 ft | 484 kts | 124° |
| 2026-04-30 09:19 | 84.12227 | -61.60137 | 35195 ft | 484 kts | 124° |
| 2026-04-30 09:19 | 84.08284 | -61.07144 | 35212 ft | 484 kts | 125° |
| 2026-04-30 09:20 | 84.04286 | -60.54746 | 35196 ft | 484 kts | 125° |
| 2026-04-30 09:20 | 84.00270 | -60.03324 | 35194 ft | 484 kts | 126° |
| 2026-04-30 09:21 | 83.96147 | -59.52554 | 35197 ft | 484 kts | 127° |
| 2026-04-30 09:21 | 83.91957 | -59.02597 | 35197 ft | 485 kts | 127° |
| 2026-04-30 09:22 | 83.87726 | -58.53260 | 35194 ft | 485 kts | 128° |
| 2026-04-30 09:22 | 83.83448 | -58.04446 | 35195 ft | 485 kts | 128° |
| 2026-04-30 09:23 | 83.79139 | -57.56409 | 35197 ft | 485 kts | 129° |
| 2026-04-30 09:23 | 83.74777 | -57.08922 | 35197 ft | 485 kts | 129° |
| 2026-04-30 09:24 | 83.70376 | -56.62136 | 35198 ft | 485 kts | 130° |
| 2026-04-30 09:24 | 83.65931 | -56.15975 | 35198 ft | 485 kts | 130° |
| 2026-04-30 09:25 | 83.61442 | -55.70420 | 35196 ft | 486 kts | 130° |
| 2026-04-30 09:25 | 83.56915 | -55.25510 | 35196 ft | 486 kts | 131° |
| 2026-04-30 09:26 | 83.52348 | -54.81216 | 35197 ft | 486 kts | 131° |
| 2026-04-30 09:26 | 83.47745 | -54.37559 | 35199 ft | 486 kts | 132° |
| 2026-04-30 09:27 | 83.43105 | -53.94516 | 35197 ft | 486 kts | 132° |
| 2026-04-30 09:27 | 83.38417 | -53.51968 | 35196 ft | 486 kts | 133° |
| 2026-04-30 09:28 | 83.33692 | -53.10010 | 35197 ft | 486 kts | 133° |
| 2026-04-30 09:28 | 83.28965 | -52.68928 | 35197 ft | 486 kts | 133° |
| 2026-04-30 09:29 | 83.24173 | -52.28153 | 35200 ft | 487 kts | 134° |
| 2026-04-30 09:29 | 83.19351 | -51.87976 | 35199 ft | 487 kts | 134° |
| 2026-04-30 09:30 | 83.14488 | -51.48303 | 35198 ft | 487 kts | 135° |
| 2026-04-30 09:30 | 83.09597 | -51.09211 | 35201 ft | 487 kts | 135° |
| 2026-04-30 09:31 | 83.04668 | -50.70625 | 35200 ft | 487 kts | 135° |
| 2026-04-30 09:31 | 82.99708 | -50.32581 | 35200 ft | 488 kts | 136° |
| 2026-04-30 09:32 | 82.94712 | -49.95025 | 35200 ft | 488 kts | 136° |
| 2026-04-30 09:32 | 82.89685 | -49.57982 | 35199 ft | 488 kts | 136° |
| 2026-04-30 09:33 | 82.84629 | -49.21463 | 35197 ft | 488 kts | 137° |
| 2026-04-30 09:33 | 82.79547 | -48.85467 | 35206 ft | 488 kts | 137° |
| 2026-04-30 09:34 | 82.74431 | -48.49935 | 35197 ft | 489 kts | 137° |
| 2026-04-30 09:34 | 82.69318 | -48.15104 | 35199 ft | 489 kts | 138° |
| 2026-04-30 09:35 | 82.64143 | -47.80512 | 35195 ft | 489 kts | 138° |
| 2026-04-30 09:35 | 82.58931 | -47.46334 | 35195 ft | 490 kts | 139° |
| 2026-04-30 09:36 | 82.53704 | -47.12710 | 35203 ft | 489 kts | 139° |
| 2026-04-30 09:36 | 82.48446 | -46.79499 | 35196 ft | 490 kts | 139° |
| 2026-04-30 09:37 | 82.43143 | -46.46630 | 35192 ft | 490 kts | 140° |
| 2026-04-30 09:37 | 82.37823 | -46.14263 | 35187 ft | 491 kts | 140° |
| 2026-04-30 09:38 | 82.32511 | -45.82536 | 35189 ft | 491 kts | 140° |
| 2026-04-30 09:38 | 82.27143 | -45.51037 | 35184 ft | 491 kts | 141° |
| 2026-04-30 09:39 | 82.21758 | -45.20003 | 35198 ft | 491 kts | 141° |
| 2026-04-30 09:39 | 82.16334 | -44.89303 | 35188 ft | 491 kts | 141° |
| 2026-04-30 09:40 | 82.10886 | -44.59006 | 35187 ft | 492 kts | 141° |
| 2026-04-30 09:40 | 82.05442 | -44.29241 | 35174 ft | 493 kts | 142° |
| 2026-04-30 09:41 | 81.99950 | -43.99716 | 35182 ft | 493 kts | 142° |
| 2026-04-30 09:41 | 81.94422 | -43.70499 | 35175 ft | 493 kts | 142° |
| 2026-04-30 09:42 | 81.89811 | -43.46452 | 35165 ft | 493 kts | 142° |
| 2026-04-30 09:42 | 81.84265 | -43.17935 | 35156 ft | 493 kts | 143° |
| 2026-04-30 09:43 | 81.78695 | -42.89777 | 35149 ft | 493 kts | 143° |
| 2026-04-30 09:43 | 81.73100 | -42.61970 | 35140 ft | 494 kts | 143° |
| 2026-04-30 09:44 | 81.67483 | -42.34525 | 35131 ft | 494 kts | 143° |
| 2026-04-30 09:44 | 81.61885 | -42.07621 | 35121 ft | 494 kts | 144° |
| 2026-04-30 09:45 | 81.56230 | -41.80897 | 35111 ft | 494 kts | 144° |
| 2026-04-30 09:45 | 81.54347 | -41.72093 | 35107 ft | 494 kts | 144° |
| 2026-04-30 09:46 | 81.38551 | -41.00097 | 35090 ft | 495 kts | 144° |
| 2026-04-30 09:47 | 81.32818 | -40.74751 | 35086 ft | 495 kts | 145° |
| 2026-04-30 09:47 | 81.27060 | -40.49700 | 35079 ft | 495 kts | 145° |
| 2026-04-30 09:48 | 81.21322 | -40.25132 | 35074 ft | 495 kts | 145° |
| 2026-04-30 09:48 | 81.15530 | -40.00715 | 35069 ft | 495 kts | 146° |
| 2026-04-30 09:49 | 81.09721 | -39.76613 | 35069 ft | 495 kts | 146° |
| 2026-04-30 09:49 | 81.03918 | -39.52913 | 35059 ft | 492 kts | 146° |
| 2026-04-30 09:50 | 80.98133 | -39.29647 | 35062 ft | 491 kts | 146° |
| 2026-04-30 09:50 | 80.92359 | -39.06768 | 35044 ft | 483 kts | 146° |
| 2026-04-30 09:51 | 80.86683 | -38.84611 | 35062 ft | 485 kts | 147° |
| 2026-04-30 09:51 | 80.80922 | -38.62450 | 35052 ft | 484 kts | 147° |
| 2026-04-30 09:52 | 80.75148 | -38.40565 | 35059 ft | 486 kts | 147° |
| 2026-04-30 09:52 | 80.69374 | -38.19004 | 35051 ft | 484 kts | 147° |
| 2026-04-30 09:53 | 80.63579 | -37.97677 | 35043 ft | 485 kts | 148° |
| 2026-04-30 09:53 | 80.57783 | -37.76636 | 35047 ft | 486 kts | 148° |
| 2026-04-30 09:54 | 80.51921 | -37.55671 | 35049 ft | 487 kts | 148° |
| 2026-04-30 09:54 | 80.46093 | -37.35130 | 35043 ft | 487 kts | 148° |
| 2026-04-30 09:55 | 80.40236 | -37.14771 | 35033 ft | 487 kts | 148° |
| 2026-04-30 09:55 | 80.34340 | -36.94562 | 35034 ft | 487 kts | 149° |
| 2026-04-30 09:56 | 80.28455 | -36.74685 | 35043 ft | 487 kts | 149° |
| 2026-04-30 09:56 | 80.22525 | -36.54924 | 35031 ft | 488 kts | 149° |
| 2026-04-30 09:57 | 80.17593 | -36.38692 | 35025 ft | 487 kts | 149° |
| 2026-04-30 09:57 | 80.10685 | -36.16277 | 35029 ft | 488 kts | 149° |
| 2026-04-30 09:58 | 80.05722 | -36.00389 | 35023 ft | 489 kts | 150° |
| 2026-04-30 09:58 | 79.99740 | -35.81480 | 35011 ft | 489 kts | 150° |
| 2026-04-30 09:59 | 79.87773 | -35.44411 | 35007 ft | 489 kts | 150° |
| 2026-04-30 10:00 | 79.78758 | -35.17137 | 35005 ft | 490 kts | 150° |
| 2026-04-30 10:01 | 79.69696 | -34.90261 | 34996 ft | 491 kts | 151° |
| 2026-04-30 10:02 | 79.60657 | -34.63984 | 34992 ft | 489 kts | 152° |
| 2026-04-30 10:02 | 79.54586 | -34.46616 | 34989 ft | 492 kts | 152° |
| 2026-04-30 10:03 | 79.48501 | -34.29435 | 35007 ft | 492 kts | 152° |
| 2026-04-30 10:03 | 79.42409 | -34.12453 | 34988 ft | 491 kts | 152° |
| 2026-04-30 10:04 | 79.36298 | -33.95635 | 34987 ft | 493 kts | 152° |
| 2026-04-30 10:04 | 79.30172 | -33.78997 | 34986 ft | 491 kts | 152° |
| 2026-04-30 10:05 | 79.24053 | -33.62585 | 34988 ft | 492 kts | 153° |
| 2026-04-30 10:05 | 79.17905 | -33.46301 | 34984 ft | 492 kts | 153° |
| 2026-04-30 10:06 | 79.11765 | -33.30242 | 35000 ft | 493 kts | 153° |
| 2026-04-30 10:06 | 79.05602 | -33.14310 | 34980 ft | 491 kts | 153° |
| 2026-04-30 10:07 | 78.99443 | -32.98582 | 34986 ft | 493 kts | 153° |
| 2026-04-30 10:07 | 78.93318 | -32.82908 | 34991 ft | 493 kts | 153° |
| 2026-04-30 10:08 | 78.87169 | -32.67205 | 34991 ft | 493 kts | 153° |
| 2026-04-30 10:08 | 78.80999 | -32.51642 | 34976 ft | 491 kts | 153° |
| 2026-04-30 10:09 | 78.74846 | -32.36340 | 34993 ft | 494 kts | 154° |
| 2026-04-30 10:09 | 78.68654 | -32.21138 | 34975 ft | 491 kts | 154° |
| 2026-04-30 10:10 | 78.62471 | -32.06139 | 34991 ft | 494 kts | 154° |
| 2026-04-30 10:10 | 78.56272 | -31.91279 | 34990 ft | 492 kts | 154° |
| 2026-04-30 10:11 | 78.50091 | -31.76634 | 34991 ft | 494 kts | 154° |
| 2026-04-30 10:11 | 78.43874 | -31.62079 | 34988 ft | 492 kts | 154° |
| 2026-04-30 10:12 | 78.37652 | -31.47683 | 34986 ft | 494 kts | 155° |
| 2026-04-30 10:12 | 78.31431 | -31.33459 | 34986 ft | 492 kts | 155° |
| 2026-04-30 10:13 | 78.25184 | -31.19337 | 34983 ft | 495 kts | 155° |
| 2026-04-30 10:13 | 78.18930 | -31.05363 | 34977 ft | 493 kts | 155° |
| 2026-04-30 10:14 | 78.12667 | -30.91529 | 34978 ft | 493 kts | 155° |
| 2026-04-30 10:14 | 78.03264 | -30.71056 | 34982 ft | 495 kts | 155° |
| 2026-04-30 10:15 | 77.97016 | -30.57644 | 34964 ft | 492 kts | 156° |
| 2026-04-30 10:15 | 77.90756 | -30.44357 | 34985 ft | 494 kts | 156° |
| 2026-04-30 10:16 | 77.84460 | -30.31141 | 34977 ft | 494 kts | 156° |
| 2026-04-30 10:17 | 77.75046 | -30.11655 | 34977 ft | 492 kts | 156° |
| 2026-04-30 10:17 | 77.65600 | -29.92426 | 34972 ft | 492 kts | 156° |
| 2026-04-30 10:18 | 77.59309 | -29.79793 | 34977 ft | 494 kts | 157° |
| 2026-04-30 10:19 | 77.49861 | -29.61078 | 34975 ft | 493 kts | 157° |
| 2026-04-30 10:19 | 77.43551 | -29.48746 | 34972 ft | 494 kts | 157° |
| 2026-04-30 10:20 | 77.37227 | -29.36520 | 34969 ft | 493 kts | 157° |
| 2026-04-30 10:20 | 77.27740 | -29.18424 | 34970 ft | 492 kts | 158° |
| 2026-04-30 10:21 | 77.21427 | -29.06539 | 34969 ft | 492 kts | 158° |
| 2026-04-30 10:21 | 77.15125 | -28.94802 | 34963 ft | 493 kts | 158° |
| 2026-04-30 10:22 | 77.08778 | -28.83104 | 34965 ft | 493 kts | 158° |
| 2026-04-30 10:22 | 77.02418 | -28.71502 | 34954 ft | 491 kts | 158° |
| 2026-04-30 10:23 | 76.96080 | -28.60060 | 34962 ft | 492 kts | 158° |
| 2026-04-30 10:23 | 76.89716 | -28.48692 | 34963 ft | 494 kts | 158° |
| 2026-04-30 10:24 | 76.83352 | -28.37441 | 34952 ft | 492 kts | 159° |
| 2026-04-30 10:24 | 76.76982 | -28.26293 | 34956 ft | 494 kts | 159° |
| 2026-04-30 10:25 | 76.70616 | -28.15264 | 34952 ft | 492 kts | 159° |
| 2026-04-30 10:25 | 76.64248 | -28.04342 | 34948 ft | 493 kts | 159° |
| 2026-04-30 10:26 | 76.57848 | -27.93479 | 34944 ft | 494 kts | 159° |
| 2026-04-30 10:26 | 76.51463 | -27.82748 | 34936 ft | 491 kts | 159° |
| 2026-04-30 10:27 | 76.45089 | -27.72142 | 34943 ft | 490 kts | 159° |
| 2026-04-30 10:27 | 76.38784 | -27.61755 | 34936 ft | 486 kts | 160° |
| 2026-04-30 10:28 | 76.32475 | -27.51459 | 34939 ft | 486 kts | 160° |
| 2026-04-30 10:28 | 76.26153 | -27.41244 | 34936 ft | 486 kts | 160° |
| 2026-04-30 10:29 | 76.19815 | -27.31101 | 34946 ft | 488 kts | 160° |
| 2026-04-30 10:29 | 76.13496 | -27.21085 | 34933 ft | 488 kts | 160° |
| 2026-04-30 10:30 | 76.07161 | -27.11132 | 34936 ft | 484 kts | 160° |
| 2026-04-30 10:30 | 76.00864 | -27.01363 | 34932 ft | 480 kts | 161° |
| 2026-04-30 10:31 | 75.94448 | -26.94123 | 34946 ft | 477 kts | 167° |
| 2026-04-30 10:31 | 75.87998 | -26.87713 | 34942 ft | 477 kts | 167° |
| 2026-04-30 10:32 | 75.81556 | -26.81225 | 34947 ft | 478 kts | 167° |
| 2026-04-30 10:32 | 75.75085 | -26.74716 | 34947 ft | 480 kts | 167° |
| 2026-04-30 10:33 | 75.68591 | -26.68240 | 34945 ft | 482 kts | 167° |
| 2026-04-30 10:33 | 75.62070 | -26.61804 | 34947 ft | 483 kts | 167° |
| 2026-04-30 10:34 | 75.55541 | -26.55421 | 34941 ft | 483 kts | 167° |
| 2026-04-30 10:34 | 75.49006 | -26.49093 | 34943 ft | 483 kts | 167° |
| 2026-04-30 10:35 | 75.42495 | -26.42843 | 34938 ft | 483 kts | 167° |
| 2026-04-30 10:35 | 75.35972 | -26.36638 | 34931 ft | 482 kts | 167° |
| 2026-04-30 10:36 | 75.29450 | -26.30490 | 34929 ft | 481 kts | 167° |
| 2026-04-30 10:36 | 75.22938 | -26.24405 | 34927 ft | 481 kts | 167° |
| 2026-04-30 10:37 | 75.16433 | -26.18381 | 34929 ft | 480 kts | 167° |
| 2026-04-30 10:37 | 75.09925 | -26.12407 | 34926 ft | 480 kts | 167° |
| 2026-04-30 10:38 | 75.03417 | -26.06485 | 34921 ft | 480 kts | 168° |
| 2026-04-30 10:38 | 74.96902 | -26.00608 | 34922 ft | 480 kts | 168° |
| 2026-04-30 10:39 | 74.90393 | -25.94787 | 34923 ft | 480 kts | 168° |
| 2026-04-30 10:39 | 74.83895 | -25.89026 | 34919 ft | 480 kts | 168° |
| 2026-04-30 10:40 | 74.77426 | -25.83340 | 34921 ft | 479 kts | 168° |
| 2026-04-30 10:40 | 74.70925 | -25.77674 | 34922 ft | 479 kts | 168° |
| 2026-04-30 10:41 | 74.65473 | -25.72960 | 34922 ft | 479 kts | 168° |
| 2026-04-30 10:41 | 74.58969 | -25.67380 | 34919 ft | 479 kts | 168° |
| 2026-04-30 10:42 | 74.52466 | -25.61847 | 34931 ft | 479 kts | 168° |
| 2026-04-30 10:42 | 74.45955 | -25.56354 | 34923 ft | 479 kts | 168° |
| 2026-04-30 10:43 | 74.39450 | -25.50912 | 34920 ft | 479 kts | 168° |
| 2026-04-30 10:43 | 74.32984 | -25.45546 | 34925 ft | 479 kts | 168° |
| 2026-04-30 10:44 | 74.26477 | -25.40192 | 34912 ft | 478 kts | 168° |
| 2026-04-30 10:44 | 74.19985 | -25.34894 | 34915 ft | 478 kts | 168° |
| 2026-04-30 10:45 | 74.13489 | -25.29636 | 34913 ft | 478 kts | 169° |
| 2026-04-30 10:45 | 74.06997 | -25.24424 | 34904 ft | 477 kts | 169° |
| 2026-04-30 10:46 | 74.00504 | -25.19252 | 34909 ft | 477 kts | 169° |
| 2026-04-30 10:46 | 73.94003 | -25.14119 | 34902 ft | 477 kts | 169° |
| 2026-04-30 10:47 | 73.87551 | -25.09063 | 34897 ft | 477 kts | 169° |
| 2026-04-30 10:47 | 73.81069 | -25.04024 | 34888 ft | 476 kts | 169° |
| 2026-04-30 10:48 | 73.74591 | -24.99028 | 34888 ft | 476 kts | 169° |
| 2026-04-30 10:48 | 73.68105 | -24.94065 | 34883 ft | 475 kts | 169° |
| 2026-04-30 10:49 | 73.61686 | -24.89193 | 34937 ft | 475 kts | 169° |
| 2026-04-30 10:49 | 73.55138 | -24.84267 | 34895 ft | 486 kts | 169° |
| 2026-04-30 10:50 | 73.48468 | -24.79286 | 34890 ft | 492 kts | 169° |
| 2026-04-30 10:50 | 73.41768 | -24.74316 | 34879 ft | 492 kts | 170° |
| 2026-04-30 10:51 | 73.35063 | -24.69383 | 34881 ft | 492 kts | 170° |
| 2026-04-30 10:51 | 73.28372 | -24.64503 | 34876 ft | 491 kts | 170° |
| 2026-04-30 10:52 | 73.21691 | -24.59668 | 34883 ft | 489 kts | 170° |
| 2026-04-30 10:52 | 73.15031 | -24.54887 | 34892 ft | 488 kts | 170° |
| 2026-04-30 10:53 | 73.08379 | -24.50149 | 34880 ft | 488 kts | 170° |
| 2026-04-30 10:53 | 73.01736 | -24.45453 | 34893 ft | 487 kts | 170° |
| 2026-04-30 10:54 | 72.95147 | -24.40833 | 34883 ft | 486 kts | 170° |
| 2026-04-30 10:54 | 72.88517 | -24.36218 | 34898 ft | 486 kts | 170° |
| 2026-04-30 10:55 | 72.81897 | -24.31644 | 34891 ft | 485 kts | 171° |
| 2026-04-30 10:55 | 72.75268 | -24.27102 | 34907 ft | 486 kts | 171° |
| 2026-04-30 10:56 | 72.68626 | -24.22585 | 34892 ft | 487 kts | 171° |
| 2026-04-30 10:56 | 72.61976 | -24.18094 | 34895 ft | 487 kts | 171° |
| 2026-04-30 10:57 | 72.55334 | -24.13644 | 34903 ft | 487 kts | 171° |
| 2026-04-30 10:57 | 72.48685 | -24.09222 | 34901 ft | 487 kts | 171° |
| 2026-04-30 10:58 | 72.42072 | -24.04857 | 34904 ft | 486 kts | 171° |
| 2026-04-30 10:58 | 72.35428 | -24.00503 | 34907 ft | 486 kts | 171° |
| 2026-04-30 10:59 | 72.28791 | -23.96183 | 34907 ft | 486 kts | 171° |
| 2026-04-30 10:59 | 72.22156 | -23.91674 | 34905 ft | 487 kts | 167° |
| 2026-04-30 11:00 | 72.15649 | -23.85418 | 34917 ft | 487 kts | 166° |
| 2026-04-30 11:00 | 72.09175 | -23.79226 | 34912 ft | 487 kts | 166° |
| 2026-04-30 11:01 | 72.02658 | -23.73106 | 34898 ft | 488 kts | 166° |
| 2026-04-30 11:01 | 71.96134 | -23.67045 | 34913 ft | 487 kts | 166° |
| 2026-04-30 11:02 | 71.89605 | -23.61023 | 34913 ft | 487 kts | 167° |
| 2026-04-30 11:02 | 71.83090 | -23.55056 | 34909 ft | 487 kts | 167° |
| 2026-04-30 11:03 | 71.76560 | -23.49115 | 34907 ft | 487 kts | 167° |
| 2026-04-30 11:04 | 71.66836 | -23.40347 | 34909 ft | 486 kts | 167° |
| 2026-04-30 11:04 | 71.60277 | -23.34485 | 34909 ft | 486 kts | 167° |
| 2026-04-30 11:05 | 71.53813 | -23.28752 | 34901 ft | 486 kts | 167° |
| 2026-04-30 11:05 | 71.47293 | -23.23009 | 34905 ft | 486 kts | 167° |
| 2026-04-30 11:06 | 71.40782 | -23.17312 | 34895 ft | 486 kts | 167° |
| 2026-04-30 11:06 | 71.34270 | -23.11654 | 34900 ft | 486 kts | 167° |
| 2026-04-30 11:07 | 71.27741 | -23.06021 | 34894 ft | 486 kts | 167° |
| 2026-04-30 11:07 | 71.21227 | -23.00440 | 34888 ft | 486 kts | 167° |
| 2026-04-30 11:08 | 71.14697 | -22.94885 | 34877 ft | 485 kts | 167° |
| 2026-04-30 11:08 | 71.08223 | -22.89414 | 34875 ft | 485 kts | 167° |
| 2026-04-30 11:09 | 71.01710 | -22.83949 | 34870 ft | 485 kts | 167° |
| 2026-04-30 11:09 | 70.95211 | -22.78532 | 34882 ft | 484 kts | 168° |
| 2026-04-30 11:10 | 70.88690 | -22.73133 | 34861 ft | 485 kts | 168° |
| 2026-04-30 11:10 | 70.82175 | -22.67773 | 34872 ft | 485 kts | 168° |
| 2026-04-30 11:11 | 70.75657 | -22.62469 | 34857 ft | 484 kts | 169° |
| 2026-04-30 11:11 | 70.69038 | -22.59243 | 34861 ft | 480 kts | 177° |
| 2026-04-30 11:12 | 70.62388 | -22.57213 | 34855 ft | 480 kts | 176° |
| 2026-04-30 11:12 | 70.55776 | -22.55105 | 34851 ft | 481 kts | 176° |
| 2026-04-30 11:13 | 70.49126 | -22.52939 | 34852 ft | 481 kts | 176° |
| 2026-04-30 11:13 | 70.42469 | -22.50772 | 34850 ft | 481 kts | 176° |
| 2026-04-30 11:14 | 70.35812 | -22.48621 | 34849 ft | 481 kts | 176° |
| 2026-04-30 11:14 | 70.29159 | -22.46489 | 34842 ft | 481 kts | 176° |
| 2026-04-30 11:15 | 70.22497 | -22.44370 | 34843 ft | 481 kts | 176° |
| 2026-04-30 11:15 | 70.15839 | -22.42265 | 34844 ft | 481 kts | 176° |
| 2026-04-30 11:16 | 70.09170 | -22.40170 | 34841 ft | 481 kts | 176° |
| 2026-04-30 11:16 | 70.02505 | -22.38091 | 34839 ft | 481 kts | 177° |
| 2026-04-30 11:17 | 69.95843 | -22.36025 | 34831 ft | 481 kts | 177° |
| 2026-04-30 11:17 | 69.89183 | -22.33973 | 34826 ft | 481 kts | 177° |
| 2026-04-30 11:18 | 69.82555 | -22.31944 | 34825 ft | 481 kts | 177° |
| 2026-04-30 11:18 | 69.72568 | -22.28911 | 34819 ft | 481 kts | 177° |
| 2026-04-30 11:19 | 69.65903 | -22.26903 | 34806 ft | 480 kts | 177° |
| 2026-04-30 11:19 | 69.59252 | -22.24911 | 34809 ft | 480 kts | 177° |
| 2026-04-30 11:20 | 69.52610 | -22.22935 | 34799 ft | 480 kts | 177° |
| 2026-04-30 11:20 | 69.45971 | -22.20972 | 34795 ft | 479 kts | 177° |
| 2026-04-30 11:21 | 69.39386 | -22.19036 | 34786 ft | 479 kts | 177° |
| 2026-04-30 11:21 | 69.32757 | -22.17100 | 34776 ft | 478 kts | 177° |
| 2026-04-30 11:22 | 69.26133 | -22.15177 | 34778 ft | 478 kts | 177° |
| 2026-04-30 11:22 | 69.19513 | -22.13268 | 34770 ft | 478 kts | 177° |
| 2026-04-30 11:23 | 69.12891 | -22.11370 | 34767 ft | 478 kts | 177° |
| 2026-04-30 11:24 | 69.02968 | -22.08546 | 34760 ft | 478 kts | 177° |
| 2026-04-30 11:24 | 68.96373 | -22.06683 | 34754 ft | 478 kts | 177° |
| 2026-04-30 11:25 | 68.86432 | -22.03897 | 34748 ft | 478 kts | 177° |
| 2026-04-30 11:26 | 68.74304 | -22.00531 | 34752 ft | 478 kts | 178° |
| 2026-04-30 11:26 | 68.67677 | -21.98708 | 34751 ft | 478 kts | 178° |
| 2026-04-30 11:27 | 68.61053 | -21.96896 | 34747 ft | 478 kts | 178° |
| 2026-04-30 11:27 | 68.54433 | -21.95096 | 34742 ft | 477 kts | 178° |
| 2026-04-30 11:28 | 68.44555 | -21.92429 | 34746 ft | 477 kts | 178° |
| 2026-04-30 11:29 | 68.37940 | -21.90657 | 34747 ft | 477 kts | 178° |
| 2026-04-30 11:29 | 68.28029 | -21.88021 | 34747 ft | 477 kts | 178° |
| 2026-04-30 11:30 | 68.18115 | -21.85407 | 34745 ft | 477 kts | 178° |
| 2026-04-30 11:31 | 68.11508 | -21.83677 | 34746 ft | 477 kts | 178° |
| 2026-04-30 11:31 | 68.04894 | -21.81956 | 34745 ft | 477 kts | 178° |
| 2026-04-30 11:32 | 67.98284 | -21.80245 | 34742 ft | 477 kts | 178° |
| 2026-04-30 11:32 | 67.91667 | -21.78542 | 34744 ft | 477 kts | 178° |
| 2026-04-30 11:33 | 67.81780 | -21.76016 | 34738 ft | 478 kts | 178° |
| 2026-04-30 11:33 | 67.75118 | -21.74327 | 34745 ft | 478 kts | 178° |
| 2026-04-30 11:34 | 67.68539 | -21.72667 | 34738 ft | 478 kts | 178° |
| 2026-04-30 11:34 | 67.61922 | -21.71007 | 34745 ft | 478 kts | 178° |
| 2026-04-30 11:35 | 67.55302 | -21.69356 | 34744 ft | 478 kts | 178° |
| 2026-04-30 11:35 | 67.51209 | -21.68340 | 34743 ft | 477 kts | 178° |
| 2026-04-30 11:36 | 67.44594 | -21.66705 | 34743 ft | 477 kts | 178° |
| 2026-04-30 11:36 | 67.37974 | -21.65078 | 34742 ft | 477 kts | 178° |
| 2026-04-30 11:37 | 67.31369 | -21.63464 | 34746 ft | 477 kts | 178° |
| 2026-04-30 11:37 | 67.24760 | -21.61857 | 34745 ft | 477 kts | 178° |
| 2026-04-30 11:38 | 67.18149 | -21.60259 | 34750 ft | 477 kts | 178° |
| 2026-04-30 11:38 | 67.11580 | -21.58680 | 34745 ft | 476 kts | 179° |
| 2026-04-30 11:39 | 67.04980 | -21.57102 | 34751 ft | 476 kts | 179° |
| 2026-04-30 11:39 | 66.98376 | -21.55532 | 34748 ft | 476 kts | 179° |
| 2026-04-30 11:40 | 66.91782 | -21.53973 | 34751 ft | 476 kts | 179° |
| 2026-04-30 11:40 | 66.85209 | -21.52427 | 34750 ft | 476 kts | 179° |
| 2026-04-30 11:41 | 66.78603 | -21.50882 | 34751 ft | 476 kts | 179° |
| 2026-04-30 11:41 | 66.71994 | -21.49344 | 34757 ft | 476 kts | 179° |
| 2026-04-30 11:42 | 66.65397 | -21.47817 | 34760 ft | 477 kts | 179° |
| 2026-04-30 11:42 | 66.58781 | -21.46294 | 34762 ft | 477 kts | 179° |
| 2026-04-30 11:43 | 66.52173 | -21.44781 | 34761 ft | 477 kts | 179° |
| 2026-04-30 11:43 | 66.45562 | -21.43275 | 34763 ft | 477 kts | 179° |
| 2026-04-30 11:44 | 66.38954 | -21.41778 | 34769 ft | 477 kts | 179° |
| 2026-04-30 11:44 | 66.32339 | -21.40287 | 34773 ft | 477 kts | 179° |
| 2026-04-30 11:45 | 66.25766 | -21.38814 | 34772 ft | 477 kts | 179° |
| 2026-04-30 11:45 | 66.19150 | -21.37338 | 34775 ft | 477 kts | 179° |
| 2026-04-30 11:46 | 66.12544 | -21.35872 | 34785 ft | 477 kts | 179° |
| 2026-04-30 11:46 | 66.05939 | -21.34414 | 34781 ft | 476 kts | 179° |
| 2026-04-30 11:47 | 65.99335 | -21.32822 | 34796 ft | 478 kts | 176° |
| 2026-04-30 11:47 | 65.92802 | -21.29422 | 34791 ft | 481 kts | 172° |
| 2026-04-30 11:48 | 65.86280 | -21.25723 | 34793 ft | 480 kts | 172° |
| 2026-04-30 11:48 | 65.79800 | -21.22126 | 34799 ft | 480 kts | 172° |
| 2026-04-30 11:49 | 65.73271 | -21.18557 | 34800 ft | 480 kts | 172° |
| 2026-04-30 11:49 | 65.66758 | -21.15024 | 34799 ft | 480 kts | 172° |
| 2026-04-30 11:50 | 65.60238 | -21.11502 | 34803 ft | 480 kts | 172° |
| 2026-04-30 11:50 | 65.53718 | -21.07997 | 34801 ft | 479 kts | 172° |
| 2026-04-30 11:51 | 65.47204 | -21.04512 | 34819 ft | 479 kts | 172° |
| 2026-04-30 11:51 | 65.40698 | -21.01050 | 34818 ft | 479 kts | 172° |
| 2026-04-30 11:52 | 65.34223 | -20.97621 | 34815 ft | 479 kts | 172° |
| 2026-04-30 11:52 | 65.27714 | -20.94191 | 34820 ft | 479 kts | 172° |
| 2026-04-30 11:53 | 65.21205 | -20.90779 | 34823 ft | 478 kts | 172° |
| 2026-04-30 11:53 | 65.14689 | -20.87383 | 34334 ft | 487 kts | 172° |
| 2026-04-30 11:54 | 65.11360 | -20.85662 | 33646 ft | 489 kts | 172° |
| 2026-04-30 11:54 | 65.08024 | -20.83932 | 32652 ft | 490 kts | 172° |
| 2026-04-30 11:54 | 65.04697 | -20.82208 | 31791 ft | 488 kts | 173° |
| 2026-04-30 11:54 | 65.01380 | -20.80492 | 30941 ft | 486 kts | 173° |
| 2026-04-30 11:55 | 64.98082 | -20.78792 | 30244 ft | 482 kts | 173° |
| 2026-04-30 11:55 | 64.94826 | -20.77114 | 29637 ft | 475 kts | 173° |
| 2026-04-30 11:55 | 64.91620 | -20.75468 | 29001 ft | 468 kts | 173° |
| 2026-04-30 11:55 | 64.88470 | -20.73855 | 28435 ft | 460 kts | 173° |
| 2026-04-30 11:56 | 64.85364 | -20.72272 | 27888 ft | 453 kts | 173° |
| 2026-04-30 11:56 | 64.82346 | -20.70739 | 27359 ft | 446 kts | 173° |
| 2026-04-30 11:56 | 64.79337 | -20.69214 | 26829 ft | 440 kts | 173° |
| 2026-04-30 11:56 | 64.76370 | -20.67715 | 26284 ft | 434 kts | 173° |
| 2026-04-30 11:57 | 64.73435 | -20.66235 | 25784 ft | 428 kts | 173° |
| 2026-04-30 11:57 | 64.70542 | -20.64780 | 25260 ft | 423 kts | 173° |
| 2026-04-30 11:57 | 64.67671 | -20.63340 | 24756 ft | 419 kts | 173° |
| 2026-04-30 11:57 | 64.64840 | -20.61922 | 24252 ft | 415 kts | 173° |
| 2026-04-30 11:58 | 64.62023 | -20.60514 | 23751 ft | 411 kts | 173° |
| 2026-04-30 11:58 | 64.59244 | -20.59127 | 23216 ft | 407 kts | 173° |
| 2026-04-30 11:58 | 64.56476 | -20.57748 | 22643 ft | 403 kts | 173° |
| 2026-04-30 11:58 | 64.53752 | -20.56393 | 22149 ft | 398 kts | 173° |
| 2026-04-30 11:59 | 64.51062 | -20.55059 | 21619 ft | 394 kts | 173° |
| 2026-04-30 11:59 | 64.48402 | -20.53741 | 21150 ft | 388 kts | 173° |
| 2026-04-30 11:59 | 64.45767 | -20.52439 | 20694 ft | 384 kts | 173° |
| 2026-04-30 11:59 | 64.43174 | -20.51163 | 20231 ft | 380 kts | 173° |
| 2026-04-30 12:00 | 64.40595 | -20.49894 | 19766 ft | 377 kts | 173° |
| 2026-04-30 12:00 | 64.38030 | -20.48634 | 19294 ft | 377 kts | 173° |
| 2026-04-30 12:00 | 64.35446 | -20.47561 | 18803 ft | 373 kts | 182° |
| 2026-04-30 12:00 | 64.32898 | -20.48253 | 18361 ft | 369 kts | 201° |
| 2026-04-30 12:01 | 64.30619 | -20.50839 | 17840 ft | 363 kts | 218° |
| 2026-04-30 12:01 | 64.28831 | -20.54763 | 17237 ft | 358 kts | 233° |
| 2026-04-30 12:01 | 64.27521 | -20.59582 | 16677 ft | 354 kts | 244° |
| 2026-04-30 12:01 | 64.26826 | -20.64946 | 16100 ft | 349 kts | 260° |
| 2026-04-30 12:02 | 64.26541 | -20.70469 | 15569 ft | 346 kts | 262° |
| 2026-04-30 12:02 | 64.26278 | -20.75957 | 15022 ft | 344 kts | 262° |
| 2026-04-30 12:02 | 64.26011 | -20.81407 | 14493 ft | 342 kts | 262° |
| 2026-04-30 12:02 | 64.25735 | -20.86820 | 13960 ft | 340 kts | 261° |
| 2026-04-30 12:03 | 64.25450 | -20.92196 | 13407 ft | 338 kts | 261° |
| 2026-04-30 12:03 | 64.24862 | -21.02884 | 12333 ft | 334 kts | 261° |
| 2026-04-30 12:03 | 64.24565 | -21.08156 | 11809 ft | 331 kts | 261° |
| 2026-04-30 12:04 | 64.24268 | -21.13382 | 11441 ft | 325 kts | 261° |
| 2026-04-30 12:04 | 64.23981 | -21.18424 | 11310 ft | 313 kts | 261° |
| 2026-04-30 12:04 | 64.23706 | -21.23233 | 11171 ft | 301 kts | 260° |
| 2026-04-30 12:04 | 64.23434 | -21.27928 | 11051 ft | 290 kts | 260° |
| 2026-04-30 12:05 | 64.23176 | -21.32357 | 10930 ft | 280 kts | 260° |
| 2026-04-30 12:05 | 64.22914 | -21.36823 | 10723 ft | 273 kts | 260° |
| 2026-04-30 12:05 | 64.22661 | -21.41108 | 10454 ft | 269 kts | 260° |
| 2026-04-30 12:05 | 64.22410 | -21.45326 | 10193 ft | 265 kts | 260° |
| 2026-04-30 12:06 | 64.22160 | -21.49504 | 9923 ft | 261 kts | 260° |
| 2026-04-30 12:06 | 64.21915 | -21.53611 | 9648 ft | 258 kts | 259° |
| 2026-04-30 12:06 | 64.21671 | -21.57674 | 9359 ft | 255 kts | 259° |
| 2026-04-30 12:06 | 64.21427 | -21.61691 | 9080 ft | 251 kts | 259° |
| 2026-04-30 12:07 | 64.21187 | -21.65644 | 8837 ft | 248 kts | 259° |
| 2026-04-30 12:07 | 64.20950 | -21.69533 | 8570 ft | 245 kts | 259° |
| 2026-04-30 12:07 | 64.20717 | -21.73350 | 8316 ft | 243 kts | 259° |
| 2026-04-30 12:07 | 64.20481 | -21.77189 | 8075 ft | 241 kts | 259° |
| 2026-04-30 12:08 | 64.20248 | -21.80995 | 7823 ft | 240 kts | 259° |
| 2026-04-30 12:08 | 64.20015 | -21.84764 | 7567 ft | 238 kts | 259° |
| 2026-04-30 12:08 | 64.19783 | -21.88483 | 7407 ft | 232 kts | 259° |
| 2026-04-30 12:08 | 64.19555 | -21.92122 | 7227 ft | 231 kts | 259° |
| 2026-04-30 12:09 | 64.19322 | -21.95811 | 7008 ft | 235 kts | 259° |
| 2026-04-30 12:09 | 64.19085 | -21.99555 | 6780 ft | 238 kts | 259° |
| 2026-04-30 12:09 | 64.18845 | -22.03348 | 6521 ft | 240 kts | 259° |
| 2026-04-30 12:09 | 64.18605 | -22.07147 | 6270 ft | 241 kts | 258° |
| 2026-04-30 12:10 | 64.18363 | -22.10931 | 5997 ft | 238 kts | 259° |
| 2026-04-30 12:10 | 64.18203 | -22.13422 | 5822 ft | 236 kts | 259° |
| 2026-04-30 12:10 | 64.17886 | -22.18330 | 5490 ft | 233 kts | 258° |
| 2026-04-30 12:10 | 64.17649 | -22.21993 | 5271 ft | 229 kts | 259° |
| 2026-04-30 12:11 | 64.17495 | -22.24367 | 5157 ft | 225 kts | 259° |
| 2026-04-30 12:11 | 64.17189 | -22.29080 | 4805 ft | 222 kts | 258° |
| 2026-04-30 12:11 | 64.16961 | -22.32551 | 4579 ft | 224 kts | 258° |
| 2026-04-30 12:11 | 64.16727 | -22.36094 | 4343 ft | 224 kts | 259° |
| 2026-04-30 12:12 | 64.16495 | -22.39604 | 4141 ft | 221 kts | 259° |
| 2026-04-30 12:12 | 64.16340 | -22.41940 | 3949 ft | 218 kts | 258° |
| 2026-04-30 12:12 | 64.15966 | -22.45178 | 3708 ft | 210 kts | 249° |
| 2026-04-30 12:12 | 64.15461 | -22.48271 | 3483 ft | 204 kts | 248° |
| 2026-04-30 12:13 | 64.14969 | -22.51271 | 3274 ft | 198 kts | 248° |
| 2026-04-30 12:13 | 64.14496 | -22.54188 | 3094 ft | 190 kts | 249° |
| 2026-04-30 12:13 | 64.14047 | -22.56914 | 3013 ft | 175 kts | 243° |
| 2026-04-30 12:13 | 64.13215 | -22.58691 | 3031 ft | 169 kts | 206° |
| 2026-04-30 12:14 | 64.12056 | -22.59537 | 2869 ft | 181 kts | 200° |
| 2026-04-30 12:14 | 64.10826 | -22.60066 | 2609 ft | 181 kts | 193° |
| 2026-04-30 12:14 | 64.09599 | -22.60385 | 2356 ft | 174 kts | 191° |
| 2026-04-30 12:14 | 64.08401 | -22.60530 | 2129 ft | 172 kts | 188° |
| 2026-04-30 12:15 | 64.07208 | -22.60544 | 1873 ft | 167 kts | 187° |
| 2026-04-30 12:15 | 64.06111 | -22.60538 | 1635 ft | 147 kts | 187° |
| 2026-04-30 12:15 | 64.05126 | -22.60539 | 1420 ft | 135 kts | 187° |
| 2026-04-30 12:15 | 64.04191 | -22.60542 | 1256 ft | 135 kts | 188° |
| 2026-04-30 12:16 | 64.03246 | -22.60547 | 1059 ft | 140 kts | 188° |
| 2026-04-30 12:16 | 64.02276 | -22.60544 | 839 ft | 138 kts | 187° |
| 2026-04-30 12:16 | 64.01318 | -22.60545 | 658 ft | 138 kts | 187° |
| 2026-04-30 12:16 | 64.00349 | -22.60541 | 464 ft | 139 kts | 186° |
| 2026-04-30 12:17 | 63.98456 | -22.60525 | 175 ft | 131 kts | 184° |
| 2026-04-30 12:17 | 63.97660 | -22.60570 | 163 ft | 94 kts | 180° |
| 2026-04-30 12:17 | 63.97160 | -22.60551 | 156 ft | 49 kts | 181° |
| 2026-04-30 12:18 | 63.96971 | -22.60542 | 155 ft | 6 kts | 178° |
| 2026-04-30 12:18 | 63.96938 | -22.60540 | 155 ft | 5 kts | 178° |
| 2026-04-30 12:18 | 63.96896 | -22.60536 | 155 ft | 7 kts | 178° |
| 2026-04-30 12:18 | 63.96833 | -22.60533 | 154 ft | 10 kts | 179° |
| 2026-04-30 12:19 | 63.96755 | -22.60529 | 154 ft | 12 kts | 178° |
| 2026-04-30 12:19 | 63.96665 | -22.60530 | 152 ft | 15 kts | 182° |
| 2026-04-30 12:19 | 63.96552 | -22.60539 | 150 ft | 17 kts | 183° |
| 2026-04-30 12:19 | 63.96484 | -22.60566 | 149 ft | 8 kts | 219° |
| 2026-04-30 12:20 | 63.96465 | -22.60682 | 149 ft | 8 kts | 261° |
| 2026-04-30 12:20 | 63.96463 | -22.60802 | 150 ft | 0 kts | 271° |
| 2026-04-30 12:24 | 63.96466 | -22.60856 | 150 ft | 7 kts | 281° |
| 2026-04-30 12:25 | 63.96502 | -22.60929 | 150 ft | 7 kts | 343° |
| 2026-04-30 12:25 | 63.96553 | -22.60941 | 151 ft | 7 kts | 358° |
| 2026-04-30 12:25 | 63.96605 | -22.60943 | 151 ft | 7 kts | 359° |
| 2026-04-30 12:25 | 63.96656 | -22.60945 | 151 ft | 7 kts | 359° |
| 2026-04-30 12:26 | 63.96708 | -22.60947 | 152 ft | 7 kts | 359° |
| 2026-04-30 12:26 | 63.96760 | -22.60948 | 152 ft | 7 kts | 359° |
| 2026-04-30 12:26 | 63.96814 | -22.60947 | 153 ft | 9 kts | 1° |
| 2026-04-30 12:26 | 63.96883 | -22.60945 | 154 ft | 11 kts | 0° |
| 2026-04-30 12:27 | 63.96967 | -22.60944 | 155 ft | 13 kts | 0° |
| 2026-04-30 12:27 | 63.97066 | -22.60942 | 156 ft | 15 kts | 0° |
| 2026-04-30 12:27 | 63.97179 | -22.60948 | 157 ft | 17 kts | 358° |
| 2026-04-30 12:27 | 63.97305 | -22.60948 | 158 ft | 19 kts | 0° |
| 2026-04-30 12:28 | 63.97444 | -22.60946 | 159 ft | 21 kts | 1° |
| 2026-04-30 12:28 | 63.97595 | -22.60945 | 161 ft | 22 kts | 359° |
| 2026-04-30 12:28 | 63.97757 | -22.60946 | 162 ft | 24 kts | 359° |
| 2026-04-30 12:28 | 63.97926 | -22.60950 | 164 ft | 25 kts | 359° |
| 2026-04-30 12:29 | 63.98106 | -22.60947 | 165 ft | 26 kts | 0° |
| 2026-04-30 12:29 | 63.98285 | -22.60939 | 167 ft | 21 kts | 2° |
| 2026-04-30 12:29 | 63.98371 | -22.60936 | 166 ft | 0 kts | 359° |
| 2026-04-30 12:30 | 63.98374 | -22.60936 | 166 ft | 1 kts | 359° |
| 2026-04-30 12:30 | 63.98386 | -22.60936 | 166 ft | 2 kts | 360° |
| 2026-04-30 12:31 | 63.98406 | -22.60936 | 166 ft | 3 kts | 360° |
| 2026-04-30 12:31 | 63.98432 | -22.60936 | 166 ft | 4 kts | 360° |
| 2026-04-30 12:31 | 63.98461 | -22.60936 | 167 ft | 4 kts | 0° |
| 2026-04-30 12:31 | 63.98497 | -22.60937 | 167 ft | 6 kts | 359° |
| 2026-04-30 12:32 | 63.98560 | -22.60940 | 167 ft | 12 kts | 359° |
| 2026-04-30 12:32 | 63.98653 | -22.60943 | 169 ft | 11 kts | 359° |
| 2026-04-30 12:32 | 63.98736 | -22.60945 | 170 ft | 12 kts | 359° |
| 2026-04-30 12:32 | 63.98761 | -22.60946 | 170 ft | 0 kts | 359° |
| 2026-04-30 12:33 | 63.98773 | -22.60946 | 170 ft | 3 kts | 359° |
| 2026-04-30 12:33 | 63.98810 | -22.60947 | 171 ft | 7 kts | 359° |
| 2026-04-30 12:33 | 63.98873 | -22.60948 | 171 ft | 11 kts | 360° |
| 2026-04-30 12:34 | 63.98962 | -22.60946 | 172 ft | 15 kts | 0° |
| 2026-04-30 12:34 | 63.99074 | -22.60944 | 173 ft | 14 kts | 1° |
| 2026-04-30 12:34 | 63.99134 | -22.60948 | 174 ft | 7 kts | 348° |
| 2026-04-30 12:34 | 63.99163 | -22.61032 | 174 ft | 7 kts | 281° |
| 2026-04-30 12:35 | 63.99170 | -22.61162 | 173 ft | 10 kts | 272° |
| 2026-04-30 12:35 | 63.99172 | -22.61340 | 172 ft | 13 kts | 271° |
| 2026-04-30 12:35 | 63.99172 | -22.61561 | 171 ft | 10 kts | 268° |
| 2026-04-30 12:35 | 63.99171 | -22.61748 | 169 ft | 11 kts | 271° |
| 2026-04-30 12:36 | 63.99171 | -22.61808 | 168 ft | 0 kts | 271° |
| 2026-04-30 12:39 | 63.99171 | -22.61811 | 168 ft | 1 kts | 271° |
| 2026-04-30 12:40 | 63.99171 | -22.61848 | 168 ft | 4 kts | 270° |
| 2026-04-30 12:40 | 63.99172 | -22.61956 | 167 ft | 9 kts | 270° |
| 2026-04-30 12:40 | 63.99172 | -22.62137 | 165 ft | 14 kts | 270° |
| 2026-04-30 12:40 | 63.99172 | -22.62378 | 162 ft | 17 kts | 270° |
| 2026-04-30 12:41 | 63.99173 | -22.62559 | 160 ft | 4 kts | 270° |
| 2026-04-30 12:41 | 63.99181 | -22.62639 | 160 ft | 6 kts | 310° |
| 2026-04-30 12:41 | 63.99221 | -22.62678 | 160 ft | 6 kts | 339° |
| 2026-04-30 12:41 | 63.99260 | -22.62728 | 160 ft | 7 kts | 332° |
| 2026-04-30 12:42 | 63.99306 | -22.62753 | 160 ft | 7 kts | 352° |
| 2026-04-30 12:42 | 63.99346 | -22.62753 | 161 ft | 4 kts | 7° |
| 2026-04-30 12:42 | 63.99374 | -22.62741 | 161 ft | 4 kts | 19° |
| 2026-04-30 12:42 | 63.99401 | -22.62762 | 161 ft | 4 kts | 318° |
| 2026-04-30 12:43 | 63.99405 | -22.62805 | 161 ft | 3 kts | 271° |
| 2026-04-30 12:43 | 63.99405 | -22.62869 | 160 ft | 5 kts | 270° |
| 2026-04-30 12:43 | 63.99405 | -22.62929 | 160 ft | 1 kts | 270° |
| 2026-04-30 12:43 | 63.99405 | -22.62936 | 159 ft | 0 kts | 270° |
| 2026-04-30 12:47 | 63.99405 | -22.62935 | 159 ft | 0 kts | 270° |